Portada
METAR-TAF:

METAR-TAF

Aeropuertos :

Funafuti, Tuvalu

Aeropuerto Internacional de Funafuti

latitud: 08-31S, longitud: 179-13E, altitud: 1 m

Observación

El informe se hizo hace 1 hora y 4 minutos, a las 01:00 UTC
Viento 4 kt del este
Temperatura 31°C
Humedad 75%
Presión 1007 hPa
Visibilidad 10 km o más
Escasas nubes a una altura de 1700 ft, Cumulus congestus.
Cielo nuboso a una altura de 2000 ft

METAR: NGFU 230100Z 09004KT 9999 FEW017TCU BKN020 31/26 Q1007

Hora: 14:04 (02:04 UTC)

Pronóstico

El informe se hizo hace 2 horas y 58 minutos, a las 23:06 UTC
Pronóstico válido del 23 a las 00 UTC al 23 a las 24 UTC
Viento 6 kt del este
Visibilidad 10 km o más
Escasas nubes a una altura de 2000 ft
Probabilidad 30% :
Temporalmente
del 23 a las 16 UTC al 23 a las 22 UTC
Visibilidad: 5000 m
Escasas nubes a una altura de 1800 ft, Cumulonimbus.
tormenta, lluvia

TAF: NGFU 222306Z 2300/2324 08006KT 9999 FEW020 PROB30 TEMPO 2316/2322 5000 TSRA FEW018CB

Observaciones y pronósticos meteorológicos de más de 4000 aeropuertos (mensajes METAR y TAF).

Los puntos amarillos y rojos representan las estaciones disponibles.

Ponga el ratón en el punto deseado para ver el nombre de la estación.

Haga clic para ver las observaciones y los pronósticos meteorológicos.

Para cambiar el mapa : haga clic en los botones verdes con una cruz de color negro para hacer un zoom, en el botón verde con un guión para alejar o en las flechas verdes para mapas adyacentes.


METAR-TAF: